^^
Grace C. Lehan Memorial Weather Station Historical Data
Daily Summary for August 24, 2021 Units:  English    Metric   Both
Daily Weekly Monthly Yearly
  High: Low: Average:
Temperature: 52.2 °F 36.5 °F 44.9 °F
Dew Point: 37.3 °F 29.7 °F 32.9 °F
Humidity: 78% 48.2% 63%
Wind Speed: 8.2mph 0mph 2.7mph
Wind Gust: 19mph - -
Wind- - SW
Pressure: 30.01 in 29.72 in -
Precipitation: 0.00 in    
 
 
Tabular Data for August 24, 2021
Time Temperature Dew Point Pressure Wind Wind Speed Wind Gust Humidity Rainfall Rate (Hourly) solar
00:04 41.9 °F 34.2 °F 29.77 in WNW 3.9 mph 13 mph 74% 0.00 in 0 W/m2
00:09 42 °F 34 °F 29.77 in WNW 3.1 mph 13 mph 73.1% 0.00 in 0 W/m2
00:14 42 °F 34 °F 29.78 in WNW 2.2 mph 13 mph 73% 0.00 in 0 W/m2
00:19 42 °F 34 °F 29.78 in WNW 2 mph 13 mph 73% 0.00 in 0 W/m2
00:24 41.9 °F 33.9 °F 29.79 in WNW 3.1 mph 13 mph 73% 0.00 in 0 W/m2
00:29 41.9 °F 33.9 °F 29.79 in West 1.1 mph 13 mph 73% 0.00 in 0 W/m2
00:34 41.9 °F 34.2 °F 29.79 in WNW 2.5 mph 13 mph 73.9% 0.00 in 0 W/m2
00:39 41.9 °F 33.9 °F 29.80 in WNW 3.2 mph 9 mph 73% 0.00 in 0 W/m2
00:44 42 °F 33.6 °F 29.80 in West 3.8 mph 11 mph 71.9% 0.00 in 0 W/m2
00:49 42.2 °F 33.5 °F 29.80 in WNW 4.8 mph 15 mph 71% 0.00 in 0 W/m2
00:54 42.3 °F 33.5 °F 29.81 in WNW 6.9 mph 18 mph 70.6% 0.00 in 0 W/m2
00:59 42.5 °F 33.4 °F 29.81 in WNW 6.9 mph 18 mph 70% 0.00 in 0 W/m2
01:04 42.7 °F 33.4 °F 29.81 in WNW 3.9 mph 18 mph 69.6% 0.00 in 0 W/m2
01:09 42.7 °F 33.2 °F 29.81 in WNW 3.4 mph 13 mph 69% 0.00 in 0 W/m2
01:14 42.6 °F 33.2 °F 29.81 in WNW 3.7 mph 14 mph 69% 0.00 in 0 W/m2
01:19 42.6 °F 33.2 °F 29.81 in WNW 8.2 mph 15 mph 69% 0.00 in 0 W/m2
01:24 42.6 °F 33.1 °F 29.81 in WNW 7.3 mph 18 mph 68.8% 0.00 in 0 W/m2
01:29 42.6 °F 32.8 °F 29.82 in WNW 7 mph 18 mph 68% 0.00 in 0 W/m2
01:34 42.5 °F 32.7 °F 29.82 in WNW 7.7 mph 18 mph 67.9% 0.00 in 0 W/m2
01:39 42.5 °F 32.3 °F 29.82 in WNW 6.5 mph 15 mph 67% 0.00 in 0 W/m2
01:44 42.4 °F 32.2 °F 29.82 in WNW 5.6 mph 15 mph 67% 0.00 in 0 W/m2
01:49 42.3 °F 32.1 °F 29.82 in WNW 4.8 mph 15 mph 67% 0.00 in 0 W/m2
01:54 42.2 °F 32 °F 29.82 in WNW 4.5 mph 15 mph 67% 0.00 in 0 W/m2
01:59 42.1 °F 32 °F 29.82 in WNW 6.2 mph 15 mph 67.3% 0.00 in 0 W/m2
02:04 42 °F 31.9 °F 29.82 in WNW 5.7 mph 15 mph 67% 0.00 in 0 W/m2
02:09 41.9 °F 31.8 °F 29.83 in WNW 6.9 mph 14 mph 67% 0.00 in 0 W/m2
02:14 41.9 °F 31.8 °F 29.83 in WNW 6.6 mph 15 mph 67% 0.00 in 0 W/m2
02:19 41.8 °F 31.7 °F 29.83 in WNW 5.8 mph 15 mph 67% 0.00 in 0 W/m2
02:24 41.7 °F 31.6 °F 29.83 in WNW 7.1 mph 15 mph 67% 0.00 in 0 W/m2
02:29 41.6 °F 31.5 °F 29.83 in WNW 5.6 mph 15 mph 67% 0.00 in 0 W/m2
02:34 41.6 °F 31.5 °F 29.83 in WNW 7.5 mph 15 mph 67% 0.00 in 0 W/m2
02:39 41.6 °F 31.5 °F 29.83 in WNW 6.5 mph 15 mph 67% 0.00 in 0 W/m2
02:44 41.6 °F 31.5 °F 29.84 in WNW 4.3 mph 15 mph 67% 0.00 in 0 W/m2
02:49 41.5 °F 31.4 °F 29.84 in WNW 5.6 mph 15 mph 67% 0.00 in 0 W/m2
02:54 41.4 °F 31.5 °F 29.84 in WNW 5.1 mph 15 mph 67.5% 0.00 in 0 W/m2
02:59 41.3 °F 31.6 °F 29.84 in WNW 5.8 mph 15 mph 68% 0.00 in 0 W/m2
03:04 41.3 °F 31.5 °F 29.85 in WNW 7.7 mph 15 mph 68% 0.00 in 0 W/m2
03:09 41.2 °F 31.4 °F 29.85 in WNW 5.7 mph 14 mph 68% 0.00 in 0 W/m2
03:14 41.2 °F 31.4 °F 29.85 in WNW 5.7 mph 19 mph 68% 0.00 in 0 W/m2
03:19 41.2 °F 31.4 °F 29.85 in WNW 5.5 mph 19 mph 68% 0.00 in 0 W/m2
03:24 41.2 °F 31.4 °F 29.85 in WNW 5 mph 19 mph 68% 0.00 in 0 W/m2
03:29 41.1 °F 31.4 °F 29.86 in WNW 5.7 mph 19 mph 68% 0.00 in 0 W/m2
03:34 40.9 °F 31.2 °F 29.86 in West 6 mph 19 mph 68% 0.00 in 0 W/m2
03:39 40.9 °F 31.2 °F 29.87 in WNW 4.4 mph 13 mph 68% 0.00 in 0 W/m2
03:44 40.8 °F 31.1 °F 29.88 in West 2.8 mph 13 mph 68% 0.00 in 0 W/m2
03:49 40.7 °F 31 °F 29.88 in West 3.5 mph 13 mph 68% 0.00 in 0 W/m2
03:54 40.6 °F 31 °F 29.89 in West 1.8 mph 13 mph 68.3% 0.00 in 0 W/m2
03:58 40.5 °F 31.1 °F 29.89 in West 2.3 mph 13 mph 69% 0.00 in 0 W/m2
04:04 40.3 °F 30.9 °F 29.89 in WNW 7.4 mph 11 mph 69% 0.00 in 0 W/m2
04:09 40.3 °F 31 °F 29.89 in WNW 6.2 mph 13 mph 69% 0.00 in 0 W/m2
04:14 40.4 °F 31.1 °F 29.89 in West 4.9 mph 13 mph 69% 0.00 in 0 W/m2
04:19 40.4 °F 31.1 °F 29.89 in WNW 5.7 mph 13 mph 69% 0.00 in 0 W/m2
04:24 40.5 °F 31.1 °F 29.89 in West 4.1 mph 13 mph 69% 0.00 in 0 W/m2
04:29 40.5 °F 30.8 °F 29.89 in West 4.3 mph 13 mph 68.2% 0.00 in 0 W/m2
04:34 40.6 °F 30.9 °F 29.89 in NW 3.1 mph 13 mph 68.1% 0.00 in 0 W/m2
04:39 40.6 °F 30.9 °F 29.89 in NW 5.5 mph 12 mph 68% 0.00 in 0 W/m2
04:44 40.8 °F 30.8 °F 29.89 in WNW 5.5 mph 12 mph 67.3% 0.00 in 0 W/m2
04:49 41 °F 30.9 °F 29.90 in WNW 4.4 mph 13 mph 67% 0.00 in 0 W/m2
04:54 41.1 °F 30.7 °F 29.90 in West 0.5 mph 13 mph 66.1% 0.00 in 0 W/m2
04:59 41.1 °F 30.6 °F 29.90 in Calm   13 mph 66% 0.00 in 0 W/m2
05:04 41.1 °F 30.6 °F 29.91 in Calm   13 mph 66% 0.00 in 0 W/m2
05:09 40.9 °F 30.6 °F 29.91 in Calm     66.6% 0.00 in 0 W/m2
05:14 40.7 °F 30.6 °F 29.91 in Calm     67% 0.00 in 0 W/m2
05:19 40.4 °F 30.4 °F 29.91 in Calm     67.2% 0.00 in 0 W/m2
05:24 40.1 °F 30.4 °F 29.91 in Calm     68% 0.00 in 0 W/m2
05:29 39.8 °F 30.1 °F 29.92 in Calm     68% 0.00 in 0 W/m2
05:34 39.5 °F 30.2 °F 29.92 in Calm     68.9% 0.00 in 0 W/m2
05:39 39.3 °F 30 °F 29.92 in Calm     69% 0.00 in 0 W/m2
05:44 39.1 °F 30 °F 29.92 in Calm     69.5% 0.00 in 0 W/m2
05:49 38.8 °F 30 °F 29.93 in West 0.2 mph 2 mph 70.3% 0.00 in 0 W/m2
05:54 38.7 °F 30.1 °F 29.93 in WSW 0.1 mph 2 mph 71% 0.00 in 0 W/m2
05:59 38.8 °F 30.2 °F 29.93 in Calm   2 mph 71% 0.00 in 0 W/m2
06:04 38.7 °F 30.1 °F 29.94 in Calm   2 mph 71% 0.00 in 0 W/m2
06:09 38.5 °F 30.1 °F 29.94 in Calm     71.5% 0.00 in 0 W/m2
06:14 38.2 °F 30 °F 29.94 in Calm     72% 0.00 in 0 W/m2
06:19 37.8 °F 29.9 °F 29.94 in Calm     72.8% 0.00 in 0 W/m2
06:24 37.5 °F 29.9 °F 29.95 in Calm     73.6% 0.00 in 0 W/m2
06:29 37.4 °F 29.9 °F 29.95 in Calm     74% 0.00 in 0 W/m2
06:34 37.2 °F 29.7 °F 29.96 in WSW 0.1 mph 2 mph 74.2% 0.00 in 0 W/m2
06:39 37 °F 29.8 °F 29.96 in SSW 0.8 mph 4 mph 75% 0.00 in 7 W/m2
06:44 37.1 °F 30.2 °F 29.97 in SSW 0.5 mph 4 mph 76% 0.00 in 12 W/m2
06:49 37.1 °F 30.2 °F 29.96 in SSW 0.1 mph 4 mph 76% 0.00 in 19 W/m2
06:54 37 °F 30.1 °F 29.97 in Calm   4 mph 76% 0.00 in 23 W/m2
06:59 36.8 °F 30 °F 29.96 in Calm   4 mph 76% 0.00 in 21 W/m2
07:04 36.6 °F 30 °F 29.96 in Calm   4 mph 76.7% 0.00 in 21 W/m2
07:09 36.5 °F 30.1 °F 29.97 in SSW 0.1 mph 2 mph 77.2% 0.00 in 69 W/m2
07:14 36.6 °F 30.4 °F 29.97 in Calm   2 mph 78% 0.00 in 74 W/m2
07:19 36.9 °F 30.7 °F 29.98 in Calm   2 mph 78% 0.00 in 74 W/m2
07:24 37.3 °F 31.1 °F 29.98 in Calm   2 mph 78% 0.00 in 46 W/m2
07:29 37.4 °F 31.2 °F 29.99 in SSW 0.6 mph 2 mph 78% 0.00 in 32 W/m2
07:34 37.5 °F 31 °F 29.99 in SSW 0.1 mph 2 mph 77.1% 0.00 in 23 W/m2
07:39 37.5 °F 31.2 °F 29.99 in SSW 0.8 mph 3 mph 77.8% 0.00 in 33 W/m2
07:44 37.5 °F 31.3 °F 30.00 in SSW 1 mph 3 mph 78% 0.00 in 56 W/m2
07:49 37.6 °F 31.4 °F 30.00 in SSW 1.1 mph 3 mph 78% 0.00 in 70 W/m2
07:54 37.8 °F 31.6 °F 30.00 in SW 0.6 mph 4 mph 78% 0.00 in 60 W/m2
07:59 38 °F 31.8 °F 29.99 in WSW 0.8 mph 4 mph 78% 0.00 in 83 W/m2
08:04 38.5 °F 32.2 °F 30.00 in WSW 0.4 mph 1 mph 78% 0.00 in 91 W/m2
08:09 38.7 °F 32.5 °F 30.01 in WSW 0.8 mph 2 mph 78% 0.00 in 83 W/m2
08:14 39.2 °F 32.7 °F 30.01 in SW 1.7 mph 6 mph 77.5% 0.00 in 172 W/m2
08:19 39.8 °F 33.2 °F 30.01 in SW 1.1 mph 6 mph 77% 0.00 in 116 W/m2
08:24 40.5 °F 33.5 °F 30.01 in SW 0.8 mph 6 mph 75.9% 0.00 in 185 W/m2
08:29 41.2 °F 33.7 °F 30.01 in SW 0.9 mph 6 mph 74.4% 0.00 in 146 W/m2
08:34 41.6 °F 33.6 °F 30.01 in SW 0.6 mph 6 mph 73.1% 0.00 in 149 W/m2
08:39 41.9 °F 33.6 °F 30.01 in SW 0.2 mph 2 mph 72.4% 0.00 in 227 W/m2
08:44 42.3 °F 34.3 °F 30.01 in SW 0.1 mph 2 mph 73% 0.00 in 301 W/m2
08:49 43 °F 34.9 °F 30.00 in SW 0.5 mph 4 mph 72.6% 0.00 in 378 W/m2
08:54 43.9 °F 35 °F 30.00 in SW 0.2 mph 4 mph 70.7% 0.00 in 383 W/m2
08:59 44.9 °F 35.3 °F 30.00 in SW 0.3 mph 5 mph 68.8% 0.00 in 353 W/m2
09:04 45.6 °F 35.2 °F 29.99 in SW 0.2 mph 5 mph 66.8% 0.00 in 271 W/m2
09:09 46 °F 35 °F 30.00 in SW 1.2 mph 7 mph 65.2% 0.00 in 274 W/m2
09:14 46.1 °F 34.5 °F 30.00 in SW 0.6 mph 7 mph 63.6% 0.00 in 264 W/m2
09:19 46 °F 34.7 °F 30.01 in SW 0.1 mph 7 mph 64.5% 0.00 in 237 W/m2
09:24 46.1 °F 34.7 °F 30.01 in SW 0.1 mph 7 mph 64.3% 0.00 in 241 W/m2
09:29 46.1 °F 34.5 °F 30.01 in SW 0.3 mph 7 mph 63.8% 0.00 in 258 W/m2
09:34 46.1 °F 34.4 °F 30.01 in WSW 1.2 mph 7 mph 63.5% 0.00 in 311 W/m2
09:39 46.1 °F 34.2 °F 30.01 in WSW 0.9 mph 6 mph 63.1% 0.00 in 318 W/m2
09:44 46.2 °F 34.8 °F 30.01 in WSW 0.2 mph 6 mph 64.2% 0.00 in 410 W/m2
09:49 46.5 °F 34.8 °F 30.01 in WSW 0.4 mph 6 mph 63.6% 0.00 in 420 W/m2
09:54 46.9 °F 35.2 °F 30.01 in WSW 0.1 mph 6 mph 63.6% 0.00 in 420 W/m2
09:59 47.3 °F 34.8 °F 30.01 in WSW 0.3 mph 6 mph 61.8% 0.00 in 352 W/m2
10:04 47.6 °F 35.2 °F 30.01 in WSW 0.2 mph 6 mph 62% 0.00 in 413 W/m2
10:09 47.9 °F 34.8 °F 30.01 in WSW 0.4 mph 2 mph 60.4% 0.00 in 369 W/m2
10:14 48 °F 34.7 °F 30.00 in WSW 0.1 mph 3 mph 59.6% 0.00 in 297 W/m2
10:19 47.9 °F 34.7 °F 30.00 in SW 1 mph 4 mph 60% 0.00 in 397 W/m2
10:24 48 °F 34.8 °F 30.00 in SW 0.4 mph 4 mph 60% 0.00 in 408 W/m2
10:29 48.1 °F 34.7 °F 30.00 in WSW 1.2 mph 5 mph 59.3% 0.00 in 550 W/m2
10:34 48.4 °F 35.1 °F 30.00 in WSW 0.6 mph 5 mph 59.9% 0.00 in 513 W/m2
10:38 48.7 °F 35 °F 30.00 in WSW 1.5 mph 5 mph 59% 0.00 in 608 W/m2
10:44 49.1 °F 35.4 °F 30.00 in SW 0.9 mph 5 mph 59% 0.00 in 666 W/m2
10:49 49.4 °F 35.3 °F 30.00 in WSW 0.5 mph 5 mph 58% 0.00 in 408 W/m2
10:54 49.6 °F 35.5 °F 30.00 in SW 0.7 mph 6 mph 58.1% 0.00 in 499 W/m2
10:59 50.2 °F 35.9 °F 29.99 in SW 0.7 mph 6 mph 57.7% 0.00 in 664 W/m2
11:04 50.7 °F 35.8 °F 29.99 in SW 0.8 mph 6 mph 56.4% 0.00 in 538 W/m2
11:09 50.9 °F 35.1 °F 29.99 in SW 2.2 mph 5 mph 54.6% 0.00 in 752 W/m2
11:14 50.8 °F 35.2 °F 29.98 in SW 0.5 mph 5 mph 54.9% 0.00 in 703 W/m2
11:19 50.9 °F 35.3 °F 29.99 in SW 1 mph 5 mph 55% 0.00 in 636 W/m2
11:24 51 °F 35.2 °F 29.99 in SW 1.3 mph 5 mph 54.5% 0.00 in 751 W/m2
11:29 51.1 °F 34.8 °F 29.99 in SW 1 mph 5 mph 53.4% 0.00 in 751 W/m2
11:34 51.1 °F 34.3 °F 29.99 in WSW 1 mph 5 mph 52.3% 0.00 in 385 W/m2
11:39 51.3 °F 34 °F 29.98 in SW 0.1 mph 4 mph 51.3% 0.00 in 378 W/m2
11:44 51.8 °F 34.8 °F 29.98 in SW 0.3 mph 4 mph 52.2% 0.00 in 332 W/m2
11:49 52.2 °F 34.4 °F 29.98 in SW 0.8 mph 4 mph 50.6% 0.00 in 320 W/m2
11:54 52.2 °F 33.2 °F 29.97 in West 1.9 mph 10 mph 48.2% 0.00 in 413 W/m2
11:59 52.2 °F 33.8 °F 29.97 in WSW 0.6 mph 10 mph 49.5% 0.00 in 677 W/m2
12:00 52.2 °F 34.1 °F 29.97 in WSW 2 mph 10 mph 50% 0.00 in 596 W/m2
12:09 52.2 °F 34.3 °F 29.97 in WSW 1 mph 4 mph 50.5% 0.00 in 506 W/m2
12:14 52.1 °F 33.8 °F 29.96 in SW 1.7 mph 5 mph 49.5% 0.00 in 297 W/m2
12:19 51.9 °F 33.5 °F 29.95 in SW 1.4 mph 6 mph 49.2% 0.00 in 253 W/m2
12:24 51.9 °F 33.7 °F 29.94 in SW 1 mph 6 mph 49.7% 0.00 in 232 W/m2
12:29 51.7 °F 33.4 °F 29.94 in SW 1.3 mph 6 mph 49.3% 0.00 in 287 W/m2
12:34 51.5 °F 33 °F 29.93 in SW 0.9 mph 6 mph 49.1% 0.00 in 302 W/m2
12:39 51.4 °F 33.5 °F 29.93 in SW 0.7 mph 3 mph 50.1% 0.00 in 265 W/m2
12:44 51.5 °F 33.6 °F 29.93 in SW 0.3 mph 3 mph 50% 0.00 in 265 W/m2
12:49 51.8 °F 34 °F 29.93 in SW 2.4 mph 11 mph 50.5% 0.00 in 279 W/m2
12:54 51.6 °F 33.1 °F 29.92 in SW 2.3 mph 11 mph 49% 0.00 in 295 W/m2
12:59 51.3 °F 32.8 °F 29.92 in SW 1.7 mph 11 mph 49% 0.00 in 306 W/m2
13:04 51.2 °F 33.2 °F 29.92 in SW 1.5 mph 11 mph 50% 0.00 in 294 W/m2
13:09 51 °F 32.7 °F 29.92 in SW 2.4 mph 6 mph 49.3% 0.00 in 281 W/m2
13:14 51 °F 32.5 °F 29.91 in SW 0.7 mph 6 mph 49% 0.00 in 257 W/m2
13:19 51 °F 32.5 °F 29.91 in SW 1.2 mph 6 mph 49% 0.00 in 230 W/m2
13:23 50.9 °F 32.2 °F 29.91 in SW 2.7 mph 8 mph 48.6% 0.00 in 230 W/m2
13:29 50.7 °F 32.3 °F 29.91 in SW 1.7 mph 8 mph 49% 0.00 in 227 W/m2
13:34 50.6 °F 32.2 °F 29.90 in SW 2.5 mph 8 mph 49% 0.00 in 213 W/m2
13:39 50.5 °F 32.4 °F 29.90 in SW 2.3 mph 7 mph 49.6% 0.00 in 248 W/m2
13:44 50.5 °F 32.4 °F 29.90 in SW 0.6 mph 7 mph 49.6% 0.00 in 253 W/m2
13:49 50.5 °F 32.5 °F 29.90 in SW 2.7 mph 7 mph 49.6% 0.00 in 262 W/m2
13:54 50.7 °F 32.2 °F 29.89 in SW 1.9 mph 7 mph 49% 0.00 in 265 W/m2
13:59 50.8 °F 32.4 °F 29.89 in SW 2.9 mph 7 mph 49% 0.00 in 260 W/m2
14:04 50.8 °F 32.8 °F 29.89 in SSW 3.2 mph 7 mph 49.8% 0.00 in 251 W/m2
14:09 50.8 °F 34.2 °F 29.89 in SSW 1.4 mph 7 mph 52.7% 0.00 in 232 W/m2
14:14 50.7 °F 34.2 °F 29.89 in South 3.6 mph 7 mph 53% 0.00 in 195 W/m2
14:19 50.4 °F 34.3 °F 29.88 in South 5.3 mph 13 mph 53.8% 0.00 in 329 W/m2
14:24 50.4 °F 34.6 °F 29.88 in SSW 4.1 mph 13 mph 54.4% 0.00 in 336 W/m2
14:29 50.5 °F 34.7 °F 29.87 in South 5.2 mph 13 mph 54.3% 0.00 in 336 W/m2
14:34 50.6 °F 34.6 °F 29.87 in South 5.7 mph 14 mph 54% 0.00 in 571 W/m2
14:39 50.5 °F 34.5 °F 29.88 in South 5.1 mph 14 mph 54% 0.00 in 441 W/m2
14:44 50.5 °F 34.5 °F 29.87 in South 5.6 mph 14 mph 54% 0.00 in 297 W/m2
14:49 50.3 °F 34.6 °F 29.87 in SSW 3.9 mph 14 mph 54.5% 0.00 in 244 W/m2
14:54 50.3 °F 34.3 °F 29.87 in South 4.6 mph 14 mph 54% 0.00 in 494 W/m2
14:59 50.3 °F 34.3 °F 29.87 in South 5.3 mph 14 mph 54% 0.00 in 454 W/m2
15:04 50.2 °F 34.2 °F 29.87 in SSW 5.7 mph 14 mph 54% 0.00 in 220 W/m2
15:09 50 °F 34.1 °F 29.86 in SSW 5.1 mph 12 mph 54.2% 0.00 in 54 W/m2
15:14 50 °F 34.1 °F 29.86 in South 4.3 mph 12 mph 54.3% 0.00 in 39 W/m2
15:19 50.1 °F 34 °F 29.86 in South 5.1 mph 12 mph 53.8% 0.00 in 37 W/m2
15:24 50.3 °F 33.5 °F 29.85 in South 6.6 mph 12 mph 52.1% 0.00 in 37 W/m2
15:29 50.6 °F 33 °F 29.85 in South 6.4 mph 12 mph 50.7% 0.00 in 33 W/m2
15:34 50.6 °F 32.3 °F 29.84 in South 6.5 mph 13 mph 49.3% 0.00 in 33 W/m2
15:39 50.6 °F 32.5 °F 29.84 in South 6.4 mph 15 mph 49.7% 0.00 in 33 W/m2
15:44 50.5 °F 32.9 °F 29.83 in South 5.5 mph 15 mph 50.6% 0.00 in 33 W/m2
15:48 50.4 °F 33 °F 29.83 in South 5.2 mph 15 mph 51% 0.00 in 33 W/m2
15:54 50.4 °F 33.1 °F 29.83 in South 5 mph 15 mph 51.3% 0.00 in 32 W/m2
15:59 50.3 °F 33.4 °F 29.83 in SSW 4.2 mph 15 mph 52% 0.00 in 32 W/m2
16:00 50.1 °F 33.2 °F 29.82 in South 6 mph 15 mph 52% 0.00 in 30 W/m2
16:09 49.8 °F 33.4 °F 29.82 in SSW 4.4 mph 9 mph 53% 0.00 in 30 W/m2
16:14 49.6 °F 33.2 °F 29.82 in South 4 mph 13 mph 53% 0.00 in 30 W/m2
16:19 49.6 °F 33.5 °F 29.82 in SSW 4.1 mph 13 mph 53.7% 0.00 in 28 W/m2
16:24 49.5 °F 33.6 °F 29.81 in SSW 4.1 mph 13 mph 54% 0.00 in 26 W/m2
16:29 49.4 °F 33.5 °F 29.81 in SSW 5.5 mph 13 mph 54% 0.00 in 26 W/m2
16:34 49.3 °F 33.4 °F 29.81 in SW 3.6 mph 13 mph 54% 0.00 in 25 W/m2
16:39 49.2 °F 33.6 °F 29.81 in SW 2.4 mph 10 mph 54.6% 0.00 in 23 W/m2
16:44 49.1 °F 33.5 °F 29.81 in SSW 5.3 mph 12 mph 54.8% 0.00 in 23 W/m2
16:49 49 °F 33.1 °F 29.81 in SSW 3.3 mph 12 mph 54% 0.00 in 21 W/m2
16:54 48.9 °F 33.1 °F 29.81 in SSW 4.5 mph 12 mph 54.4% 0.00 in 19 W/m2
16:59 48.8 °F 33 °F 29.80 in South 4.1 mph 12 mph 54.1% 0.00 in 18 W/m2
17:04 48.7 °F 33.3 °F 29.80 in South 5.1 mph 13 mph 55% 0.00 in 16 W/m2
17:09 48.4 °F 33.3 °F 29.79 in South 4.4 mph 13 mph 55.6% 0.00 in 16 W/m2
17:14 48.1 °F 33.1 °F 29.79 in SSW 3.5 mph 13 mph 56% 0.00 in 12 W/m2
17:19 47.8 °F 33 °F 29.79 in SW 3.5 mph 13 mph 56.4% 0.00 in 11 W/m2
17:24 47.5 °F 33 °F 29.79 in SSW 4.7 mph 14 mph 56.8% 0.00 in 7 W/m2
17:29 47.2 °F 32.7 °F 29.79 in SSW 2.8 mph 14 mph 56.8% 0.00 in 5 W/m2
17:34 46.9 °F 32.5 °F 29.79 in SSW 4 mph 14 mph 57% 0.00 in 0 W/m2
17:39 46.7 °F 32.3 °F 29.78 in SSW 4.8 mph 11 mph 57% 0.00 in 0 W/m2
17:44 46.6 °F 32.2 °F 29.78 in SSW 4.6 mph 11 mph 57% 0.00 in 0 W/m2
17:49 46.4 °F 32 °F 29.77 in South 3.7 mph 11 mph 57% 0.00 in 0 W/m2
17:54 46.3 °F 31.9 °F 29.77 in South 4.2 mph 11 mph 57% 0.00 in 0 W/m2
17:59 46.1 °F 31.8 °F 29.77 in South 3.4 mph 11 mph 57% 0.00 in 0 W/m2
18:04 46 °F 31.6 °F 29.77 in SSW 3.3 mph 11 mph 57% 0.00 in 0 W/m2
18:09 45.8 °F 31.4 °F 29.77 in South 4.2 mph 10 mph 57% 0.00 in 0 W/m2
18:14 45.7 °F 31.7 °F 29.77 in South 2.2 mph 10 mph 57.8% 0.00 in 0 W/m2
18:19 45.6 °F 31.7 °F 29.78 in South 0.2 mph 10 mph 58% 0.00 in 0 W/m2
18:24 45.4 °F 31.8 °F 29.78 in South 0.1 mph 10 mph 58.8% 0.00 in 0 W/m2
18:29 45.2 °F 31.7 °F 29.78 in SSW 1.6 mph 10 mph 59% 0.00 in 0 W/m2
18:34 45 °F 31.5 °F 29.78 in South 1.8 mph 10 mph 59% 0.00 in 0 W/m2
18:39 44.9 °F 31.9 °F 29.78 in South 0.1 mph 7 mph 60% 0.00 in 0 W/m2
18:44 44.8 °F 31.7 °F 29.77 in South 0.2 mph 7 mph 60% 0.00 in 0 W/m2
18:49 44.6 °F 31.9 °F 29.77 in South 2.5 mph 7 mph 60.8% 0.00 in 0 W/m2
18:54 44.5 °F 32 °F 29.76 in South 0.5 mph 7 mph 61.3% 0.00 in 0 W/m2
18:59 44.4 °F 32.2 °F 29.76 in South 0.2 mph 7 mph 62% 0.00 in 0 W/m2
19:04 44.3 °F 32.5 °F 29.75 in South 1.9 mph 7 mph 63% 0.00 in 0 W/m2
19:09 44.2 °F 32.4 °F 29.75 in South 0.2 mph 7 mph 63% 0.00 in 0 W/m2
19:13 44.1 °F 32.7 °F 29.75 in South 1.6 mph 7 mph 64% 0.00 in 0 W/m2
19:19 44 °F 32.6 °F 29.75 in South 1.8 mph 7 mph 64% 0.00 in 0 W/m2
19:24 44 °F 33 °F 29.75 in SSW 3.6 mph 7 mph 65% 0.00 in 0 W/m2
19:29 44 °F 33 °F 29.75 in SSW 0.1 mph 7 mph 65% 0.00 in 0 W/m2
19:34 44 °F 33.2 °F 29.75 in SSW 0.3 mph 7 mph 65.6% 0.00 in 0 W/m2
19:39 44 °F 33.4 °F 29.74 in South 0.7 mph 10 mph 66% 0.00 in 0 W/m2
19:44 43.9 °F 33.4 °F 29.75 in South 0.1 mph 10 mph 66.2% 0.00 in 0 W/m2
19:49 43.9 °F 33.7 °F 29.75 in South 0.9 mph 10 mph 67% 0.00 in 0 W/m2
19:54 44 °F 33.9 °F 29.74 in SSW 2.5 mph 10 mph 67.2% 0.00 in 0 W/m2
19:59 44.1 °F 34.2 °F 29.74 in SSW 1.9 mph 10 mph 68% 0.00 in 0 W/m2
20:00 44.1 °F 34.2 °F 29.74 in SSW 3 mph 10 mph 68% 0.00 in 0 W/m2
20:09 44.3 °F 34.5 °F 29.74 in SW 3.4 mph 9 mph 68% 0.00 in 0 W/m2
20:14 44.4 °F 34.9 °F 29.74 in SW 2.9 mph 9 mph 69% 0.00 in 0 W/m2
20:19 44.4 °F 34.9 °F 29.74 in SW 2.5 mph 9 mph 69% 0.00 in 0 W/m2
20:24 44.4 °F 34.9 °F 29.74 in SW 3.6 mph 10 mph 69.1% 0.00 in 0 W/m2
20:29 44.4 °F 35.3 °F 29.74 in SW 4.4 mph 10 mph 70% 0.00 in 0 W/m2
20:34 44.5 °F 35.4 °F 29.74 in SW 4.4 mph 10 mph 70.3% 0.00 in 0 W/m2
20:39 44.6 °F 35.8 °F 29.74 in SW 4.3 mph 10 mph 71% 0.00 in 0 W/m2
20:44 44.8 °F 36 °F 29.74 in SW 4.8 mph 10 mph 71% 0.00 in 0 W/m2
20:49 45 °F 36.1 °F 29.74 in SW 4 mph 10 mph 71% 0.00 in 0 W/m2
20:54 45.1 °F 36.3 °F 29.74 in SW 5.2 mph 10 mph 71% 0.00 in 0 W/m2
20:59 45.2 °F 36.5 °F 29.73 in SW 4.7 mph 10 mph 71.3% 0.00 in 0 W/m2
21:04 45.2 °F 36.7 °F 29.73 in SW 4.7 mph 11 mph 72% 0.00 in 0 W/m2
21:09 45.4 °F 36.9 °F 29.73 in SW 5.1 mph 12 mph 72% 0.00 in 0 W/m2
21:14 45.4 °F 36.9 °F 29.73 in SW 4.6 mph 12 mph 72% 0.00 in 0 W/m2
21:19 45.4 °F 36.9 °F 29.72 in SW 4.3 mph 12 mph 72% 0.00 in 0 W/m2
21:24 45.4 °F 37.2 °F 29.72 in SW 4 mph 12 mph 72.9% 0.00 in 0 W/m2
21:29 45.4 °F 37.3 °F 29.72 in SW 4.3 mph 12 mph 73% 0.00 in 0 W/m2
Hartford County Weather
Compliments of Weather Underground - 2 mb